sensor_id;sensor_type;location;lat;lon;timestamp;P1;durP1;ratioP1;P2;durP2;ratioP2
11797;SDS011;5956;51.428;6.682;2023-10-19T00:02:04;24.17;;;19.40;;
11797;SDS011;5956;51.428;6.682;2023-10-19T00:04:31;24.13;;;20.03;;
11797;SDS011;5956;51.428;6.682;2023-10-19T00:06:59;21.93;;;19.53;;
11797;SDS011;5956;51.428;6.682;2023-10-19T00:09:26;27.27;;;22.57;;
11797;SDS011;5956;51.428;6.682;2023-10-19T00:11:56;26.97;;;22.27;;
11797;SDS011;5956;51.428;6.682;2023-10-19T00:14:23;27.50;;;21.83;;
11797;SDS011;5956;51.428;6.682;2023-10-19T00:16:51;24.43;;;20.83;;
11797;SDS011;5956;51.428;6.682;2023-10-19T00:19:19;22.30;;;19.90;;
11797;SDS011;5956;51.428;6.682;2023-10-19T00:21:46;23.40;;;20.83;;
11797;SDS011;5956;51.428;6.682;2023-10-19T00:24:18;24.73;;;21.90;;
11797;SDS011;5956;51.428;6.682;2023-10-19T00:26:44;24.73;;;22.07;;
11797;SDS011;5956;51.428;6.682;2023-10-19T00:29:13;25.23;;;22.33;;
11797;SDS011;5956;51.428;6.682;2023-10-19T00:31:55;29.87;;;22.93;;
11797;SDS011;5956;51.428;6.682;2023-10-19T00:34:22;25.20;;;22.50;;
11797;SDS011;5956;51.428;6.682;2023-10-19T00:36:50;24.10;;;20.60;;
11797;SDS011;5956;51.428;6.682;2023-10-19T00:39:18;22.10;;;19.47;;
11797;SDS011;5956;51.428;6.682;2023-10-19T00:41:47;22.10;;;19.27;;
11797;SDS011;5956;51.428;6.682;2023-10-19T00:44:15;21.10;;;18.73;;
11797;SDS011;5956;51.428;6.682;2023-10-19T00:46:42;21.70;;;19.40;;
11797;SDS011;5956;51.428;6.682;2023-10-19T00:49:14;23.03;;;19.77;;
11797;SDS011;5956;51.428;6.682;2023-10-19T00:51:42;23.53;;;20.83;;
11797;SDS011;5956;51.428;6.682;2023-10-19T00:54:23;22.60;;;20.30;;
11797;SDS011;5956;51.428;6.682;2023-10-19T00:56:56;22.10;;;19.37;;
11797;SDS011;5956;51.428;6.682;2023-10-19T00:59:29;23.00;;;20.43;;
11797;SDS011;5956;51.428;6.682;2023-10-19T01:02:00;25.90;;;23.17;;
11797;SDS011;5956;51.428;6.682;2023-10-19T01:04:41;25.93;;;21.83;;
11797;SDS011;5956;51.428;6.682;2023-10-19T01:07:10;27.83;;;23.73;;
11797;SDS011;5956;51.428;6.682;2023-10-19T01:09:49;25.67;;;22.97;;
11797;SDS011;5956;51.428;6.682;2023-10-19T01:12:18;23.50;;;21.00;;
11797;SDS011;5956;51.428;6.682;2023-10-19T01:15:05;24.90;;;20.83;;
11797;SDS011;5956;51.428;6.682;2023-10-19T01:17:33;25.43;;;22.67;;
11797;SDS011;5956;51.428;6.682;2023-10-19T01:20:04;25.23;;;22.40;;
11797;SDS011;5956;51.428;6.682;2023-10-19T01:22:45;27.80;;;23.50;;
11797;SDS011;5956;51.428;6.682;2023-10-19T01:25:12;26.03;;;22.93;;
11797;SDS011;5956;51.428;6.682;2023-10-19T01:27:44;28.90;;;23.40;;
11797;SDS011;5956;51.428;6.682;2023-10-19T01:30:12;24.53;;;21.97;;
11797;SDS011;5956;51.428;6.682;2023-10-19T01:32:42;20.93;;;17.13;;
11797;SDS011;5956;51.428;6.682;2023-10-19T01:35:08;17.53;;;15.70;;
11797;SDS011;5956;51.428;6.682;2023-10-19T01:37:36;12.80;;;11.57;;
11797;SDS011;5956;51.428;6.682;2023-10-19T01:40:05;12.03;;;10.70;;
11797;SDS011;5956;51.428;6.682;2023-10-19T01:42:31;10.57;;;9.67;;
11797;SDS011;5956;51.428;6.682;2023-10-19T01:44:58;9.47;;;8.67;;
11797;SDS011;5956;51.428;6.682;2023-10-19T01:47:24;9.93;;;9.10;;
11797;SDS011;5956;51.428;6.682;2023-10-19T01:49:53;9.27;;;8.43;;
11797;SDS011;5956;51.428;6.682;2023-10-19T01:52:18;9.67;;;8.73;;
11797;SDS011;5956;51.428;6.682;2023-10-19T01:54:45;9.30;;;8.43;;
11797;SDS011;5956;51.428;6.682;2023-10-19T01:57:12;9.70;;;8.90;;
11797;SDS011;5956;51.428;6.682;2023-10-19T01:59:40;10.40;;;9.43;;
11797;SDS011;5956;51.428;6.682;2023-10-19T02:02:09;12.03;;;9.73;;
11797;SDS011;5956;51.428;6.682;2023-10-19T02:04:37;11.60;;;10.40;;
11797;SDS011;5956;51.428;6.682;2023-10-19T02:07:06;11.83;;;10.63;;
11797;SDS011;5956;51.428;6.682;2023-10-19T02:09:38;13.47;;;12.17;;
11797;SDS011;5956;51.428;6.682;2023-10-19T02:12:04;14.50;;;12.77;;
11797;SDS011;5956;51.428;6.682;2023-10-19T02:14:33;13.13;;;11.93;;
11797;SDS011;5956;51.428;6.682;2023-10-19T02:17:00;13.17;;;11.87;;
11797;SDS011;5956;51.428;6.682;2023-10-19T02:19:28;12.50;;;11.17;;
11797;SDS011;5956;51.428;6.682;2023-10-19T02:21:55;15.17;;;12.97;;
11797;SDS011;5956;51.428;6.682;2023-10-19T02:24:22;14.97;;;13.43;;
11797;SDS011;5956;51.428;6.682;2023-10-19T02:26:48;14.63;;;13.10;;
11797;SDS011;5956;51.428;6.682;2023-10-19T02:29:16;14.37;;;12.90;;
11797;SDS011;5956;51.428;6.682;2023-10-19T02:31:45;14.77;;;11.73;;
11797;SDS011;5956;51.428;6.682;2023-10-19T02:34:12;14.40;;;12.07;;
11797;SDS011;5956;51.428;6.682;2023-10-19T02:36:40;11.97;;;10.87;;
11797;SDS011;5956;51.428;6.682;2023-10-19T02:39:07;11.27;;;10.17;;
11797;SDS011;5956;51.428;6.682;2023-10-19T02:41:34;10.50;;;9.47;;
11797;SDS011;5956;51.428;6.682;2023-10-19T02:44:00;10.90;;;8.20;;
11797;SDS011;5956;51.428;6.682;2023-10-19T02:46:31;9.03;;;8.00;;
11797;SDS011;5956;51.428;6.682;2023-10-19T02:49:01;9.63;;;8.70;;
11797;SDS011;5956;51.428;6.682;2023-10-19T02:51:28;8.47;;;7.67;;
11797;SDS011;5956;51.428;6.682;2023-10-19T02:53:54;8.07;;;7.23;;
11797;SDS011;5956;51.428;6.682;2023-10-19T02:56:21;8.77;;;7.97;;
11797;SDS011;5956;51.428;6.682;2023-10-19T02:58:49;7.77;;;7.07;;
11797;SDS011;5956;51.428;6.682;2023-10-19T03:01:16;8.47;;;7.67;;
11797;SDS011;5956;51.428;6.682;2023-10-19T03:03:47;8.33;;;7.53;;
11797;SDS011;5956;51.428;6.682;2023-10-19T03:06:18;7.97;;;7.20;;
11797;SDS011;5956;51.428;6.682;2023-10-19T03:08:45;7.03;;;6.47;;
11797;SDS011;5956;51.428;6.682;2023-10-19T03:11:12;8.07;;;7.37;;
11797;SDS011;5956;51.428;6.682;2023-10-19T03:13:38;8.77;;;7.57;;
11797;SDS011;5956;51.428;6.682;2023-10-19T03:16:06;7.70;;;7.10;;
11797;SDS011;5956;51.428;6.682;2023-10-19T03:18:34;7.80;;;7.20;;
11797;SDS011;5956;51.428;6.682;2023-10-19T03:21:01;7.60;;;7.00;;
11797;SDS011;5956;51.428;6.682;2023-10-19T03:23:27;7.07;;;6.57;;
11797;SDS011;5956;51.428;6.682;2023-10-19T03:25:56;8.53;;;7.83;;
11797;SDS011;5956;51.428;6.682;2023-10-19T03:28:39;8.20;;;7.50;;
11797;SDS011;5956;51.428;6.682;2023-10-19T03:31:08;8.57;;;7.73;;
11797;SDS011;5956;51.428;6.682;2023-10-19T03:33:38;9.60;;;8.70;;
11797;SDS011;5956;51.428;6.682;2023-10-19T03:36:06;9.93;;;8.93;;
11797;SDS011;5956;51.428;6.682;2023-10-19T03:38:39;11.47;;;9.33;;
11797;SDS011;5956;51.428;6.682;2023-10-19T03:41:06;11.80;;;9.40;;
11797;SDS011;5956;51.428;6.682;2023-10-19T03:43:34;9.50;;;8.70;;
11797;SDS011;5956;51.428;6.682;2023-10-19T03:46:02;10.23;;;9.23;;
11797;SDS011;5956;51.428;6.682;2023-10-19T03:48:31;10.33;;;9.33;;
11797;SDS011;5956;51.428;6.682;2023-10-19T03:51:03;10.47;;;9.33;;
11797;SDS011;5956;51.428;6.682;2023-10-19T03:53:30;10.03;;;9.10;;
11797;SDS011;5956;51.428;6.682;2023-10-19T03:55:59;9.93;;;8.73;;
11797;SDS011;5956;51.428;6.682;2023-10-19T03:58:28;8.73;;;7.90;;
11797;SDS011;5956;51.428;6.682;2023-10-19T04:00:55;8.77;;;7.93;;
11797;SDS011;5956;51.428;6.682;2023-10-19T04:03:26;8.67;;;7.67;;
11797;SDS011;5956;51.428;6.682;2023-10-19T04:05:55;8.43;;;7.50;;
11797;SDS011;5956;51.428;6.682;2023-10-19T04:08:25;9.87;;;7.77;;
11797;SDS011;5956;51.428;6.682;2023-10-19T04:10:52;8.10;;;7.30;;
11797;SDS011;5956;51.428;6.682;2023-10-19T04:13:33;7.50;;;6.80;;
11797;SDS011;5956;51.428;6.682;2023-10-19T04:16:01;7.73;;;7.13;;
11797;SDS011;5956;51.428;6.682;2023-10-19T04:18:27;7.57;;;6.87;;
11797;SDS011;5956;51.428;6.682;2023-10-19T04:20:54;7.50;;;6.80;;
11797;SDS011;5956;51.428;6.682;2023-10-19T04:23:23;7.53;;;6.67;;
11797;SDS011;5956;51.428;6.682;2023-10-19T04:25:53;7.57;;;6.93;;
11797;SDS011;5956;51.428;6.682;2023-10-19T04:28:21;7.70;;;7.10;;
11797;SDS011;5956;51.428;6.682;2023-10-19T04:30:57;8.53;;;7.73;;
11797;SDS011;5956;51.428;6.682;2023-10-19T04:33:28;10.70;;;8.07;;
11797;SDS011;5956;51.428;6.682;2023-10-19T04:35:54;8.87;;;8.03;;
11797;SDS011;5956;51.428;6.682;2023-10-19T04:38:25;10.17;;;8.63;;
11797;SDS011;5956;51.428;6.682;2023-10-19T04:40:51;10.47;;;9.07;;
11797;SDS011;5956;51.428;6.682;2023-10-19T04:43:18;10.13;;;8.33;;
11797;SDS011;5956;51.428;6.682;2023-10-19T04:45:46;9.03;;;8.13;;
11797;SDS011;5956;51.428;6.682;2023-10-19T04:48:15;10.33;;;9.43;;
11797;SDS011;5956;51.428;6.682;2023-10-19T04:50:42;12.17;;;10.77;;
11797;SDS011;5956;51.428;6.682;2023-10-19T04:53:09;8.10;;;6.90;;
11797;SDS011;5956;51.428;6.682;2023-10-19T04:55:35;8.77;;;6.83;;
11797;SDS011;5956;51.428;6.682;2023-10-19T04:58:02;7.93;;;6.83;;
11797;SDS011;5956;51.428;6.682;2023-10-19T05:00:31;7.57;;;6.87;;
11797;SDS011;5956;51.428;6.682;2023-10-19T05:02:58;9.80;;;8.90;;
11797;SDS011;5956;51.428;6.682;2023-10-19T05:05:28;11.60;;;9.30;;
11797;SDS011;5956;51.428;6.682;2023-10-19T05:07:54;8.23;;;7.53;;
11797;SDS011;5956;51.428;6.682;2023-10-19T05:10:21;7.43;;;6.27;;
11797;SDS011;5956;51.428;6.682;2023-10-19T05:12:47;7.17;;;6.53;;
11797;SDS011;5956;51.428;6.682;2023-10-19T05:15:14;7.00;;;6.30;;
11797;SDS011;5956;51.428;6.682;2023-10-19T05:17:41;9.63;;;6.90;;
11797;SDS011;5956;51.428;6.682;2023-10-19T05:20:07;7.57;;;6.83;;
11797;SDS011;5956;51.428;6.682;2023-10-19T05:22:35;7.20;;;6.37;;
11797;SDS011;5956;51.428;6.682;2023-10-19T05:25:02;7.40;;;6.70;;
11797;SDS011;5956;51.428;6.682;2023-10-19T05:27:29;7.07;;;6.20;;
11797;SDS011;5956;51.428;6.682;2023-10-19T05:29:56;6.80;;;6.10;;
11797;SDS011;5956;51.428;6.682;2023-10-19T05:32:22;6.63;;;6.00;;
11797;SDS011;5956;51.428;6.682;2023-10-19T05:34:49;11.37;;;8.93;;
11797;SDS011;5956;51.428;6.682;2023-10-19T05:37:15;11.33;;;10.23;;
11797;SDS011;5956;51.428;6.682;2023-10-19T05:39:44;7.83;;;7.20;;
11797;SDS011;5956;51.428;6.682;2023-10-19T05:42:10;7.37;;;6.53;;
11797;SDS011;5956;51.428;6.682;2023-10-19T05:44:37;6.37;;;5.87;;
11797;SDS011;5956;51.428;6.682;2023-10-19T05:47:03;7.83;;;6.13;;
11797;SDS011;5956;51.428;6.682;2023-10-19T05:49:30;6.83;;;6.13;;
11797;SDS011;5956;51.428;6.682;2023-10-19T05:51:58;6.60;;;6.00;;
11797;SDS011;5956;51.428;6.682;2023-10-19T05:54:25;5.67;;;5.27;;
11797;SDS011;5956;51.428;6.682;2023-10-19T05:56:53;5.63;;;5.13;;
11797;SDS011;5956;51.428;6.682;2023-10-19T05:59:20;5.93;;;5.43;;
11797;SDS011;5956;51.428;6.682;2023-10-19T06:01:46;7.13;;;6.43;;
11797;SDS011;5956;51.428;6.682;2023-10-19T06:04:13;7.27;;;6.57;;
11797;SDS011;5956;51.428;6.682;2023-10-19T06:06:40;6.43;;;5.67;;
11797;SDS011;5956;51.428;6.682;2023-10-19T06:09:06;12.50;;;11.20;;
11797;SDS011;5956;51.428;6.682;2023-10-19T06:11:34;11.63;;;9.07;;
11797;SDS011;5956;51.428;6.682;2023-10-19T06:14:04;7.30;;;6.60;;
11797;SDS011;5956;51.428;6.682;2023-10-19T06:16:32;7.07;;;6.37;;
11797;SDS011;5956;51.428;6.682;2023-10-19T06:18:58;6.80;;;5.97;;
11797;SDS011;5956;51.428;6.682;2023-10-19T06:21:25;6.47;;;5.93;;
11797;SDS011;5956;51.428;6.682;2023-10-19T06:23:51;8.60;;;6.37;;
11797;SDS011;5956;51.428;6.682;2023-10-19T06:26:19;6.80;;;5.93;;
11797;SDS011;5956;51.428;6.682;2023-10-19T06:28:46;6.93;;;6.17;;
11797;SDS011;5956;51.428;6.682;2023-10-19T06:31:14;6.60;;;6.00;;
11797;SDS011;5956;51.428;6.682;2023-10-19T06:33:41;5.97;;;5.37;;
11797;SDS011;5956;51.428;6.682;2023-10-19T06:36:07;6.30;;;5.73;;
11797;SDS011;5956;51.428;6.682;2023-10-19T06:38:34;10.13;;;6.10;;
11797;SDS011;5956;51.428;6.682;2023-10-19T06:41:00;6.23;;;5.77;;
11797;SDS011;5956;51.428;6.682;2023-10-19T06:43:28;6.37;;;5.77;;
11797;SDS011;5956;51.428;6.682;2023-10-19T06:45:55;6.90;;;6.20;;
11797;SDS011;5956;51.428;6.682;2023-10-19T06:48:23;6.43;;;5.70;;
11797;SDS011;5956;51.428;6.682;2023-10-19T06:50:50;6.40;;;5.80;;
11797;SDS011;5956;51.428;6.682;2023-10-19T06:53:17;8.67;;;6.40;;
11797;SDS011;5956;51.428;6.682;2023-10-19T06:55:43;7.20;;;6.50;;
11797;SDS011;5956;51.428;6.682;2023-10-19T06:58:10;6.90;;;6.20;;
11797;SDS011;5956;51.428;6.682;2023-10-19T07:00:37;7.70;;;7.00;;
11797;SDS011;5956;51.428;6.682;2023-10-19T07:03:07;9.07;;;6.50;;
11797;SDS011;5956;51.428;6.682;2023-10-19T07:05:35;6.50;;;5.90;;
11797;SDS011;5956;51.428;6.682;2023-10-19T07:08:02;6.57;;;5.87;;
11797;SDS011;5956;51.428;6.682;2023-10-19T07:10:32;7.47;;;6.60;;
11797;SDS011;5956;51.428;6.682;2023-10-19T07:12:59;6.97;;;6.37;;
11797;SDS011;5956;51.428;6.682;2023-10-19T07:15:26;8.13;;;6.37;;
11797;SDS011;5956;51.428;6.682;2023-10-19T07:17:55;6.50;;;6.00;;
11797;SDS011;5956;51.428;6.682;2023-10-19T07:20:22;6.17;;;5.57;;
11797;SDS011;5956;51.428;6.682;2023-10-19T07:22:53;6.10;;;5.50;;
11797;SDS011;5956;51.428;6.682;2023-10-19T07:25:20;6.77;;;6.10;;
11797;SDS011;5956;51.428;6.682;2023-10-19T07:27:47;6.63;;;6.03;;
11797;SDS011;5956;51.428;6.682;2023-10-19T07:30:13;6.27;;;5.77;;
11797;SDS011;5956;51.428;6.682;2023-10-19T07:32:45;8.60;;;6.63;;
11797;SDS011;5956;51.428;6.682;2023-10-19T07:35:14;6.77;;;6.17;;
11797;SDS011;5956;51.428;6.682;2023-10-19T07:37:40;6.10;;;5.60;;
11797;SDS011;5956;51.428;6.682;2023-10-19T07:40:10;6.87;;;5.40;;
11797;SDS011;5956;51.428;6.682;2023-10-19T07:42:39;6.10;;;5.50;;
11797;SDS011;5956;51.428;6.682;2023-10-19T07:45:05;8.00;;;6.00;;
11797;SDS011;5956;51.428;6.682;2023-10-19T07:47:36;5.73;;;5.23;;
11797;SDS011;5956;51.428;6.682;2023-10-19T07:50:03;8.20;;;5.63;;
11797;SDS011;5956;51.428;6.682;2023-10-19T07:52:29;7.23;;;5.40;;
11797;SDS011;5956;51.428;6.682;2023-10-19T07:54:56;5.63;;;5.10;;
11797;SDS011;5956;51.428;6.682;2023-10-19T07:57:24;6.90;;;5.33;;
11797;SDS011;5956;51.428;6.682;2023-10-19T07:59:51;6.60;;;6.00;;
11797;SDS011;5956;51.428;6.682;2023-10-19T08:02:21;6.27;;;5.67;;
11797;SDS011;5956;51.428;6.682;2023-10-19T08:04:49;6.07;;;5.47;;
11797;SDS011;5956;51.428;6.682;2023-10-19T08:07:16;5.90;;;5.27;;
11797;SDS011;5956;51.428;6.682;2023-10-19T08:09:44;6.23;;;5.60;;
11797;SDS011;5956;51.428;6.682;2023-10-19T08:12:10;11.33;;;10.27;;
11797;SDS011;5956;51.428;6.682;2023-10-19T08:14:40;11.13;;;9.27;;
11797;SDS011;5956;51.428;6.682;2023-10-19T08:17:07;6.03;;;5.37;;
11797;SDS011;5956;51.428;6.682;2023-10-19T08:19:34;5.43;;;5.03;;
11797;SDS011;5956;51.428;6.682;2023-10-19T08:22:01;7.13;;;6.17;;
11797;SDS011;5956;51.428;6.682;2023-10-19T08:24:27;6.53;;;5.83;;
11797;SDS011;5956;51.428;6.682;2023-10-19T08:26:55;6.60;;;5.83;;
11797;SDS011;5956;51.428;6.682;2023-10-19T08:29:22;6.13;;;5.53;;
11797;SDS011;5956;51.428;6.682;2023-10-19T08:31:50;7.03;;;6.17;;
11797;SDS011;5956;51.428;6.682;2023-10-19T08:34:17;7.10;;;5.43;;
11797;SDS011;5956;51.428;6.682;2023-10-19T08:36:44;8.37;;;5.57;;
11797;SDS011;5956;51.428;6.682;2023-10-19T08:39:11;7.93;;;4.90;;
11797;SDS011;5956;51.428;6.682;2023-10-19T08:41:38;6.77;;;5.10;;
11797;SDS011;5956;51.428;6.682;2023-10-19T08:44:06;7.33;;;5.23;;
11797;SDS011;5956;51.428;6.682;2023-10-19T08:46:36;6.73;;;5.27;;
11797;SDS011;5956;51.428;6.682;2023-10-19T08:49:03;18.40;;;16.50;;
11797;SDS011;5956;51.428;6.682;2023-10-19T08:51:30;9.20;;;8.30;;
11797;SDS011;5956;51.428;6.682;2023-10-19T08:53:56;6.80;;;5.87;;
11797;SDS011;5956;51.428;6.682;2023-10-19T08:56:23;5.40;;;4.90;;
11797;SDS011;5956;51.428;6.682;2023-10-19T08:58:50;6.83;;;5.60;;
11797;SDS011;5956;51.428;6.682;2023-10-19T09:01:18;7.18;;;5.93;;
11797;SDS011;5956;51.428;6.682;2023-10-19T09:03:44;9.17;;;6.30;;
11797;SDS011;5956;51.428;6.682;2023-10-19T09:06:12;12.47;;;8.33;;
11797;SDS011;5956;51.428;6.682;2023-10-19T09:08:40;8.93;;;8.02;;
11797;SDS011;5956;51.428;6.682;2023-10-19T09:11:07;18.58;;;16.73;;
11797;SDS011;5956;51.428;6.682;2023-10-19T09:13:43;10.68;;;9.40;;
11797;SDS011;5956;51.428;6.682;2023-10-19T09:16:12;9.63;;;8.07;;
11797;SDS011;5956;51.428;6.682;2023-10-19T09:18:39;8.80;;;7.95;;
11797;SDS011;5956;51.428;6.682;2023-10-19T09:21:06;9.48;;;8.18;;
11797;SDS011;5956;51.428;6.682;2023-10-19T09:23:38;10.95;;;7.85;;
11797;SDS011;5956;51.428;6.682;2023-10-19T09:26:04;13.73;;;8.73;;
11797;SDS011;5956;51.428;6.682;2023-10-19T09:28:33;11.10;;;7.88;;
11797;SDS011;5956;51.428;6.682;2023-10-19T09:31:01;9.70;;;7.82;;
11797;SDS011;5956;51.428;6.682;2023-10-19T09:33:28;11.70;;;8.05;;
11797;SDS011;5956;51.428;6.682;2023-10-19T09:35:54;11.52;;;7.95;;
11797;SDS011;5956;51.428;6.682;2023-10-19T09:38:23;10.32;;;7.93;;
11797;SDS011;5956;51.428;6.682;2023-10-19T09:40:52;14.60;;;7.30;;
11797;SDS011;5956;51.428;6.682;2023-10-19T09:43:21;11.13;;;6.78;;
11797;SDS011;5956;51.428;6.682;2023-10-19T09:45:50;8.98;;;5.85;;
11797;SDS011;5956;51.428;6.682;2023-10-19T09:48:19;10.25;;;6.60;;
11797;SDS011;5956;51.428;6.682;2023-10-19T09:50:54;10.98;;;6.28;;
11797;SDS011;5956;51.428;6.682;2023-10-19T09:53:23;6.72;;;4.53;;
11797;SDS011;5956;51.428;6.682;2023-10-19T09:55:53;8.27;;;4.28;;
11797;SDS011;5956;51.428;6.682;2023-10-19T09:58:20;6.10;;;4.10;;
11797;SDS011;5956;51.428;6.682;2023-10-19T10:00:49;8.27;;;3.95;;
11797;SDS011;5956;51.428;6.682;2023-10-19T10:06:01;6.88;;;3.22;;
11797;SDS011;5956;51.428;6.682;2023-10-19T10:08:31;6.45;;;3.80;;
11797;SDS011;5956;51.428;6.682;2023-10-19T10:11:00;8.52;;;3.90;;
11797;SDS011;5956;51.428;6.682;2023-10-19T10:13:39;6.10;;;2.80;;
11797;SDS011;5956;51.428;6.682;2023-10-19T10:16:06;6.43;;;2.90;;
11797;SDS011;5956;51.428;6.682;2023-10-19T10:18:34;5.53;;;2.97;;
11797;SDS011;5956;51.428;6.682;2023-10-19T10:21:07;4.93;;;3.00;;
11797;SDS011;5956;51.428;6.682;2023-10-19T10:23:39;5.65;;;4.63;;
11797;SDS011;5956;51.428;6.682;2023-10-19T10:26:07;4.85;;;2.50;;
11797;SDS011;5956;51.428;6.682;2023-10-19T10:28:34;9.05;;;2.95;;
11797;SDS011;5956;51.428;6.682;2023-10-19T10:31:08;8.75;;;2.70;;
11797;SDS011;5956;51.428;6.682;2023-10-19T10:33:37;5.20;;;2.28;;
11797;SDS011;5956;51.428;6.682;2023-10-19T10:36:04;3.20;;;1.98;;
11797;SDS011;5956;51.428;6.682;2023-10-19T10:38:33;4.63;;;2.42;;
11797;SDS011;5956;51.428;6.682;2023-10-19T10:40:59;4.90;;;2.58;;
11797;SDS011;5956;51.428;6.682;2023-10-19T10:43:28;7.22;;;3.17;;
11797;SDS011;5956;51.428;6.682;2023-10-19T10:46:02;5.38;;;2.75;;
11797;SDS011;5956;51.428;6.682;2023-10-19T10:48:28;7.57;;;3.15;;
11797;SDS011;5956;51.428;6.682;2023-10-19T10:50:54;4.03;;;2.70;;
11797;SDS011;5956;51.428;6.682;2023-10-19T10:53:22;9.25;;;3.40;;
11797;SDS011;5956;51.428;6.682;2023-10-19T10:55:49;7.80;;;2.55;;
11797;SDS011;5956;51.428;6.682;2023-10-19T10:58:16;5.38;;;2.50;;
11797;SDS011;5956;51.428;6.682;2023-10-19T11:00:44;5.07;;;2.45;;
11797;SDS011;5956;51.428;6.682;2023-10-19T11:03:12;6.28;;;2.40;;
11797;SDS011;5956;51.428;6.682;2023-10-19T11:05:41;6.38;;;2.30;;
11797;SDS011;5956;51.428;6.682;2023-10-19T11:08:11;5.00;;;2.58;;
11797;SDS011;5956;51.428;6.682;2023-10-19T11:10:38;6.97;;;2.53;;
11797;SDS011;5956;51.428;6.682;2023-10-19T11:13:05;7.75;;;2.38;;
11797;SDS011;5956;51.428;6.682;2023-10-19T11:15:32;3.60;;;2.20;;
11797;SDS011;5956;51.428;6.682;2023-10-19T11:18:01;7.07;;;2.78;;
11797;SDS011;5956;51.428;6.682;2023-10-19T11:20:27;5.00;;;2.65;;
11797;SDS011;5956;51.428;6.682;2023-10-19T11:22:55;4.70;;;2.40;;
11797;SDS011;5956;51.428;6.682;2023-10-19T11:25:22;4.75;;;2.38;;
11797;SDS011;5956;51.428;6.682;2023-10-19T11:27:50;4.07;;;2.47;;
11797;SDS011;5956;51.428;6.682;2023-10-19T11:30:24;7.82;;;2.55;;
11797;SDS011;5956;51.428;6.682;2023-10-19T11:32:51;4.63;;;3.25;;
11797;SDS011;5956;51.428;6.682;2023-10-19T11:35:23;7.35;;;4.22;;
11797;SDS011;5956;51.428;6.682;2023-10-19T11:37:51;6.78;;;3.92;;
11797;SDS011;5956;51.428;6.682;2023-10-19T11:40:19;7.68;;;4.00;;
11797;SDS011;5956;51.428;6.682;2023-10-19T11:42:46;7.20;;;3.55;;
11797;SDS011;5956;51.428;6.682;2023-10-19T11:45:13;5.47;;;3.40;;
11797;SDS011;5956;51.428;6.682;2023-10-19T11:47:41;5.45;;;3.20;;
11797;SDS011;5956;51.428;6.682;2023-10-19T11:50:08;5.15;;;2.70;;
11797;SDS011;5956;51.428;6.682;2023-10-19T11:52:39;6.72;;;2.90;;
11797;SDS011;5956;51.428;6.682;2023-10-19T11:55:05;6.20;;;3.20;;
11797;SDS011;5956;51.428;6.682;2023-10-19T11:57:33;5.72;;;2.65;;
11797;SDS011;5956;51.428;6.682;2023-10-19T12:00:00;6.10;;;2.92;;
11797;SDS011;5956;51.428;6.682;2023-10-19T12:02:33;6.18;;;2.60;;
11797;SDS011;5956;51.428;6.682;2023-10-19T12:05:01;5.13;;;2.55;;
11797;SDS011;5956;51.428;6.682;2023-10-19T12:07:28;5.00;;;2.47;;
11797;SDS011;5956;51.428;6.682;2023-10-19T12:09:56;8.50;;;2.58;;
11797;SDS011;5956;51.428;6.682;2023-10-19T12:12:24;8.02;;;3.17;;
11797;SDS011;5956;51.428;6.682;2023-10-19T12:14:51;3.65;;;2.58;;
11797;SDS011;5956;51.428;6.682;2023-10-19T12:17:19;4.57;;;2.50;;
11797;SDS011;5956;51.428;6.682;2023-10-19T12:19:47;6.78;;;2.83;;
11797;SDS011;5956;51.428;6.682;2023-10-19T12:22:14;7.25;;;2.72;;
11797;SDS011;5956;51.428;6.682;2023-10-19T12:24:40;5.10;;;2.60;;
11797;SDS011;5956;51.428;6.682;2023-10-19T12:27:08;4.68;;;2.28;;
11797;SDS011;5956;51.428;6.682;2023-10-19T12:29:35;8.70;;;2.97;;
11797;SDS011;5956;51.428;6.682;2023-10-19T12:32:02;5.45;;;2.22;;
11797;SDS011;5956;51.428;6.682;2023-10-19T12:34:30;4.68;;;2.30;;
11797;SDS011;5956;51.428;6.682;2023-10-19T12:36:56;6.10;;;2.38;;
11797;SDS011;5956;51.428;6.682;2023-10-19T12:39:24;5.65;;;2.22;;
11797;SDS011;5956;51.428;6.682;2023-10-19T12:42:09;6.10;;;2.72;;
11797;SDS011;5956;51.428;6.682;2023-10-19T12:44:36;6.95;;;2.90;;
11797;SDS011;5956;51.428;6.682;2023-10-19T12:47:06;8.88;;;2.38;;
11797;SDS011;5956;51.428;6.682;2023-10-19T12:49:35;5.35;;;2.13;;
11797;SDS011;5956;51.428;6.682;2023-10-19T12:52:01;6.10;;;2.78;;
11797;SDS011;5956;51.428;6.682;2023-10-19T12:54:29;7.10;;;2.47;;
11797;SDS011;5956;51.428;6.682;2023-10-19T12:56:57;7.40;;;3.25;;
11797;SDS011;5956;51.428;6.682;2023-10-19T12:59:25;7.30;;;2.67;;
11797;SDS011;5956;51.428;6.682;2023-10-19T13:01:52;12.55;;;6.60;;
11797;SDS011;5956;51.428;6.682;2023-10-19T13:04:23;6.75;;;3.80;;
11797;SDS011;5956;51.428;6.682;2023-10-19T13:06:50;3.67;;;2.38;;
11797;SDS011;5956;51.428;6.682;2023-10-19T13:09:22;2.97;;;2.17;;
11797;SDS011;5956;51.428;6.682;2023-10-19T13:11:56;8.00;;;2.88;;
11797;SDS011;5956;51.428;6.682;2023-10-19T13:14:25;10.27;;;2.70;;
11797;SDS011;5956;51.428;6.682;2023-10-19T13:16:52;8.32;;;3.00;;
11797;SDS011;5956;51.428;6.682;2023-10-19T13:19:19;6.72;;;2.75;;
11797;SDS011;5956;51.428;6.682;2023-10-19T13:21:49;7.03;;;3.15;;
11797;SDS011;5956;51.428;6.682;2023-10-19T13:24:16;4.97;;;2.42;;
11797;SDS011;5956;51.428;6.682;2023-10-19T13:26:47;5.57;;;2.80;;
11797;SDS011;5956;51.428;6.682;2023-10-19T13:29:14;5.15;;;2.30;;
11797;SDS011;5956;51.428;6.682;2023-10-19T13:31:43;5.10;;;2.40;;
11797;SDS011;5956;51.428;6.682;2023-10-19T13:34:14;5.25;;;2.47;;
11797;SDS011;5956;51.428;6.682;2023-10-19T13:36:41;7.65;;;3.15;;
11797;SDS011;5956;51.428;6.682;2023-10-19T13:39:10;5.82;;;3.20;;
11797;SDS011;5956;51.428;6.682;2023-10-19T13:41:42;8.13;;;3.45;;
11797;SDS011;5956;51.428;6.682;2023-10-19T13:44:10;5.63;;;3.20;;
11797;SDS011;5956;51.428;6.682;2023-10-19T13:46:38;6.32;;;2.72;;
11797;SDS011;5956;51.428;6.682;2023-10-19T13:49:06;6.63;;;2.63;;
11797;SDS011;5956;51.428;6.682;2023-10-19T13:51:35;10.93;;;2.90;;
11797;SDS011;5956;51.428;6.682;2023-10-19T13:54:01;5.22;;;2.70;;
11797;SDS011;5956;51.428;6.682;2023-10-19T13:56:28;5.47;;;2.83;;
11797;SDS011;5956;51.428;6.682;2023-10-19T13:58:55;7.00;;;2.83;;
11797;SDS011;5956;51.428;6.682;2023-10-19T14:01:22;7.55;;;2.97;;
11797;SDS011;5956;51.428;6.682;2023-10-19T14:03:51;5.15;;;2.60;;
11797;SDS011;5956;51.428;6.682;2023-10-19T14:06:21;6.57;;;3.78;;
11797;SDS011;5956;51.428;6.682;2023-10-19T14:08:49;7.68;;;2.80;;
11797;SDS011;5956;51.428;6.682;2023-10-19T14:11:16;4.55;;;3.03;;
11797;SDS011;5956;51.428;6.682;2023-10-19T14:13:43;7.70;;;3.08;;
11797;SDS011;5956;51.428;6.682;2023-10-19T14:16:10;7.18;;;3.15;;
11797;SDS011;5956;51.428;6.682;2023-10-19T14:18:37;8.70;;;2.60;;
11797;SDS011;5956;51.428;6.682;2023-10-19T14:21:10;5.70;;;2.90;;
11797;SDS011;5956;51.428;6.682;2023-10-19T14:23:38;10.00;;;3.35;;
11797;SDS011;5956;51.428;6.682;2023-10-19T14:26:06;6.85;;;2.70;;
11797;SDS011;5956;51.428;6.682;2023-10-19T14:28:34;7.07;;;2.70;;
11797;SDS011;5956;51.428;6.682;2023-10-19T14:31:01;6.32;;;2.67;;
11797;SDS011;5956;51.428;6.682;2023-10-19T14:33:29;7.28;;;2.75;;
11797;SDS011;5956;51.428;6.682;2023-10-19T14:35:56;4.88;;;2.80;;
11797;SDS011;5956;51.428;6.682;2023-10-19T14:38:22;7.85;;;2.80;;
11797;SDS011;5956;51.428;6.682;2023-10-19T14:40:52;8.65;;;2.92;;
11797;SDS011;5956;51.428;6.682;2023-10-19T14:43:18;6.93;;;2.95;;
11797;SDS011;5956;51.428;6.682;2023-10-19T14:45:45;5.45;;;2.70;;
11797;SDS011;5956;51.428;6.682;2023-10-19T14:48:12;5.63;;;2.72;;
11797;SDS011;5956;51.428;6.682;2023-10-19T14:50:40;6.30;;;3.58;;
11797;SDS011;5956;51.428;6.682;2023-10-19T14:53:07;6.63;;;3.17;;
11797;SDS011;5956;51.428;6.682;2023-10-19T14:55:34;6.55;;;2.67;;
11797;SDS011;5956;51.428;6.682;2023-10-19T14:58:02;6.78;;;2.90;;
11797;SDS011;5956;51.428;6.682;2023-10-19T15:00:31;5.05;;;2.50;;
11797;SDS011;5956;51.428;6.682;2023-10-19T15:02:59;6.43;;;2.80;;
11797;SDS011;5956;51.428;6.682;2023-10-19T15:05:27;4.38;;;2.83;;